Time;durP1;ratioP1;P1;durP2;ratioP2;P2;SDS_P1;SDS_P2;PMS_P1;PMS_P2;Temp;Humidity;BMP_temperature;BMP_pressure;BME280_temperature;BME280_humidity;BME280_pressure;Samples;Min_cycle;Max_cycle;Signal;HPM_P1;HPM_P2
2023/05/27 00:01:30;;;;;;;14.10;6.63;;;;;;;15.40;76.01;97091.81;5020671;28;20056;-72
2023/05/27 00:03:55;;;;;;;15.63;6.97;;;;;;;15.42;75.86;97081.97;5020250;28;20037;-71
2023/05/27 00:06:21;;;;;;;18.13;7.60;;;;;;;15.27;77.40;97080.34;5016872;28;20492;-72
2023/05/27 00:08:46;;;;;;;19.63;7.05;;;;;;;15.29;76.54;97084.28;5024457;28;20111;-72
2023/05/27 00:11:12;;;;;;;14.60;6.97;;;;;;;15.32;76.40;97084.69;5006676;28;20124;-72
2023/05/27 00:13:37;;;;;;;14.07;6.82;;;;;;;15.18;77.38;97072.44;5021771;28;20046;-71
2023/05/27 00:16:03;;;;;;;18.02;6.53;;;;;;;15.22;76.90;97078.75;5018346;28;20076;-73
2023/05/27 00:18:28;;;;;;;13.82;6.78;;;;;;;15.18;77.10;97083.47;5023002;28;20072;-71
2023/05/27 00:20:54;;;;;;;13.05;6.90;;;;;;;15.16;77.13;97076.75;5029865;28;20053;-73
2023/05/27 00:23:20;;;;;;;15.50;6.35;;;;;;;15.10;77.57;97082.63;5032198;28;20041;-71
2023/05/27 00:25:47;;;;;;;19.83;6.95;;;;;;;15.11;77.76;97080.69;5034491;28;20045;-71
2023/05/27 00:28:12;;;;;;;16.40;7.15;;;;;;;15.10;77.76;97068.03;5018058;28;20118;-71
2023/05/27 00:30:37;;;;;;;20.83;7.20;;;;;;;15.00;78.10;97068.78;5021991;28;20537;-71
2023/05/27 00:33:03;;;;;;;14.38;6.90;;;;;;;14.93;78.90;97069.56;5019924;28;20045;-72
2023/05/27 00:35:28;;;;;;;14.02;6.88;;;;;;;14.93;78.94;97064.03;5021695;28;20069;-71
2023/05/27 00:37:54;;;;;;;18.88;8.13;;;;;;;14.85;79.47;97073.44;5019745;28;20041;-71
2023/05/27 00:40:22;;;;;;;16.08;7.25;;;;;;;14.85;79.41;97070.69;5016607;28;20071;-71
2023/05/27 00:42:48;;;;;;;15.18;6.68;;;;;;;14.81;79.67;97067.13;5021333;28;20409;-70
2023/05/27 00:45:13;;;;;;;16.33;6.82;;;;;;;14.81;79.62;97054.13;5013855;28;20038;-70
2023/05/27 00:47:39;;;;;;;13.30;7.20;;;;;;;14.70;80.59;97059.56;5020105;28;20147;-70
2023/05/27 00:50:07;;;;;;;15.95;6.82;;;;;;;14.64;81.14;97063.06;5015815;28;20126;-71
2023/05/27 00:52:33;;;;;;;16.55;7.32;;;;;;;14.63;80.60;97054.00;5021360;28;20382;-69
2023/05/27 00:54:59;;;;;;;13.27;7.40;;;;;;;14.68;80.47;97044.59;5022156;28;20046;-69
2023/05/27 00:57:25;;;;;;;15.55;7.22;;;;;;;14.67;80.63;97052.06;5014831;28;20195;-71
2023/05/27 00:59:52;;;;;;;17.55;7.75;;;;;;;14.64;80.78;97055.59;5020916;28;20049;-73
2023/05/27 01:02:17;;;;;;;17.30;6.85;;;;;;;14.61;81.05;97048.09;5015709;28;20502;-72
2023/05/27 01:04:46;;;;;;;14.77;7.32;;;;;;;14.52;81.85;97044.88;5019312;28;20048;-72
2023/05/27 01:07:40;;;;;;;12.73;6.57;;;;;;;14.56;81.33;97045.66;5015781;28;20190;-72
2023/05/27 01:10:15;;;;;;;15.63;6.82;;;;;;;14.54;81.21;97048.03;5031323;28;20144;-71
2023/05/27 01:12:50;;;;;;;17.83;7.30;;;;;;;14.50;81.63;97047.22;5020782;28;20674;-71
2023/05/27 01:15:16;;;;;;;20.30;7.10;;;;;;;14.53;81.42;97050.00;5014745;28;20253;-72
2023/05/27 01:17:45;;;;;;;15.85;7.03;;;;;;;14.48;81.68;97053.13;5021086;28;20042;-71
2023/05/27 01:20:14;;;;;;;17.95;6.88;;;;;;;14.43;81.96;97050.72;5016788;28;20489;-70
2023/05/27 01:22:42;;;;;;;19.83;7.53;;;;;;;14.47;82.06;97042.47;5020138;28;20474;-69
2023/05/27 01:25:09;;;;;;;17.92;7.18;;;;;;;14.39;82.14;97035.34;4998674;28;20512;-71
2023/05/27 01:27:34;;;;;;;14.60;7.63;;;;;;;14.41;82.08;97046.78;5018625;28;20490;-70
2023/05/27 01:30:00;;;;;;;19.77;7.47;;;;;;;14.42;82.14;97038.13;5020093;28;20045;-70
2023/05/27 01:32:43;;;;;;;18.67;7.50;;;;;;;14.46;81.89;97038.16;5014051;28;20041;-72
2023/05/27 01:35:23;;;;;;;16.83;7.50;;;;;;;14.34;82.64;97033.72;5022044;28;20033;-72
2023/05/27 01:37:51;;;;;;;16.20;7.53;;;;;;;14.34;82.95;97030.97;5031069;28;20049;-71
2023/05/27 01:40:17;;;;;;;12.95;7.35;;;;;;;14.37;82.13;97019.19;5020687;28;20409;-71
2023/05/27 01:42:44;;;;;;;16.38;7.53;;;;;;;14.23;83.46;97032.88;5024383;28;20445;-72
2023/05/27 01:45:10;;;;;;;18.30;7.43;;;;;;;14.15;84.07;97029.25;5018863;28;20485;-71
2023/05/27 01:47:36;;;;;;;17.38;8.20;;;;;;;13.95;85.35;97034.22;5024198;28;20096;-71
2023/05/27 01:50:02;;;;;;;16.30;7.90;;;;;;;13.94;85.61;97038.94;5023724;28;20107;-70
2023/05/27 01:52:28;;;;;;;17.10;6.88;;;;;;;13.92;85.74;97018.47;5018858;28;20050;-71
2023/05/27 01:54:53;;;;;;;16.00;7.80;;;;;;;13.89;85.78;97046.75;5024846;28;20133;-72
2023/05/27 01:57:20;;;;;;;21.25;8.68;;;;;;;13.84;86.13;97039.63;5019100;28;20045;-72
2023/05/27 01:59:45;;;;;;;16.52;7.63;;;;;;;13.80;86.25;97040.78;5020591;28;20072;-72
2023/05/27 02:02:10;;;;;;;16.77;7.95;;;;;;;13.76;86.54;97022.25;5017157;28;20072;-70
2023/05/27 02:04:36;;;;;;;16.88;8.15;;;;;;;13.68;87.34;97031.59;5022467;28;20049;-70
2023/05/27 02:07:01;;;;;;;16.45;7.35;;;;;;;13.75;86.73;97023.41;5022933;28;20367;-70
2023/05/27 02:09:27;;;;;;;16.55;7.35;;;;;;;13.80;86.61;97041.56;5019344;28;20045;-70
2023/05/27 02:11:52;;;;;;;17.70;7.47;;;;;;;13.64;87.70;97036.28;5024202;28;20075;-69
2023/05/27 02:14:18;;;;;;;18.25;8.45;;;;;;;13.55;88.81;97036.59;5017753;28;20049;-70
2023/05/27 02:16:43;;;;;;;17.77;8.50;;;;;;;13.57;88.41;97044.47;5024220;28;20045;-70
2023/05/27 02:19:09;;;;;;;14.35;7.93;;;;;;;13.38;89.87;97038.00;5018828;28;20041;-70
2023/05/27 02:21:38;;;;;;;20.25;9.00;;;;;;;13.39;90.21;97033.28;5022413;28;20596;-69
2023/05/27 02:24:04;;;;;;;17.38;8.02;;;;;;;13.43;90.14;97047.88;5018363;28;20034;-71
2023/05/27 02:26:29;;;;;;;20.08;8.68;;;;;;;13.41;90.12;97046.66;5021622;28;20048;-70
2023/05/27 02:28:54;;;;;;;15.60;8.02;;;;;;;13.37;90.13;97041.13;5021883;28;20049;-69
2023/05/27 02:31:21;;;;;;;19.23;9.00;;;;;;;13.35;90.54;97046.22;5018795;28;20382;-69
2023/05/27 02:33:46;;;;;;;19.23;8.82;;;;;;;13.31;90.67;97042.66;5023627;28;20046;-70
2023/05/27 02:36:12;;;;;;;18.02;8.40;;;;;;;13.31;90.82;97051.69;5018798;28;20044;-70
2023/05/27 02:38:37;;;;;;;15.40;8.73;;;;;;;13.33;90.42;97049.34;5023897;28;20038;-70
2023/05/27 02:41:03;;;;;;;18.13;8.88;;;;;;;13.24;90.86;97051.56;5020514;28;20076;-70
2023/05/27 02:43:29;;;;;;;17.35;8.65;;;;;;;13.25;91.00;97039.38;5023113;28;20045;-70
2023/05/27 02:45:54;;;;;;;18.60;9.40;;;;;;;13.27;90.73;97042.56;5037190;28;20041;-70
2023/05/27 02:48:20;;;;;;;15.40;8.50;;;;;;;13.18;91.50;97040.13;5029034;28;20049;-69
2023/05/27 02:50:45;;;;;;;17.50;7.95;;;;;;;13.14;91.73;97036.53;5021605;28;20052;-69
2023/05/27 02:53:11;;;;;;;17.33;8.32;;;;;;;13.17;91.21;97035.78;5016902;28;20047;-69
2023/05/27 02:55:36;;;;;;;15.95;7.70;;;;;;;13.15;91.70;97040.88;5023095;28;20513;-69
2023/05/27 02:58:04;;;;;;;18.35;8.60;;;;;;;13.18;91.30;97036.56;5020937;28;20091;-68
2023/05/27 03:00:30;;;;;;;15.77;8.07;;;;;;;13.11;92.13;97020.00;5020385;28;20042;-69
2023/05/27 03:02:55;;;;;;;16.92;8.68;;;;;;;13.07;92.28;97028.22;5002073;28;20037;-69
2023/05/27 03:05:21;;;;;;;18.90;8.85;;;;;;;13.09;92.00;97031.38;5015952;28;20401;-71
2023/05/27 03:07:46;;;;;;;23.60;8.45;;;;;;;13.05;92.59;97035.22;5022271;28;20429;-69
2023/05/27 03:10:12;;;;;;;17.73;9.05;;;;;;;13.01;92.25;97041.47;5014951;28;20042;-69
2023/05/27 03:12:37;;;;;;;17.52;8.10;;;;;;;12.99;92.98;97032.03;5021470;28;20067;-69
2023/05/27 03:15:03;;;;;;;14.02;8.15;;;;;;;12.97;92.71;97032.41;5021447;28;20045;-69
2023/05/27 03:17:29;;;;;;;16.08;7.97;;;;;;;12.95;93.08;97036.69;5021163;28;20053;-69
2023/05/27 03:19:55;;;;;;;16.67;8.48;;;;;;;12.93;93.51;97039.03;5023163;28;20045;-70
2023/05/27 03:22:20;;;;;;;18.73;8.95;;;;;;;12.93;93.15;97030.78;5018267;28;20048;-69
2023/05/27 03:24:46;;;;;;;19.63;8.90;;;;;;;12.93;92.71;97033.53;5023481;28;20437;-69
2023/05/27 03:27:11;;;;;;;15.35;8.75;;;;;;;12.94;92.96;97038.63;5019388;28;20518;-69
2023/05/27 03:29:36;;;;;;;18.50;8.25;;;;;;;12.87;93.71;97040.50;5032931;28;20049;-70
2023/05/27 03:32:02;;;;;;;22.27;9.23;;;;;;;12.86;93.68;97042.47;5037957;28;20067;-70
2023/05/27 03:34:28;;;;;;;16.83;8.60;;;;;;;12.91;93.50;97033.91;5033606;28;20049;-69
2023/05/27 03:36:53;;;;;;;13.70;8.27;;;;;;;12.93;93.56;97037.06;5005190;28;20069;-70
2023/05/27 03:39:18;;;;;;;21.70;9.10;;;;;;;12.96;92.94;97035.50;5016183;28;20037;-70
2023/05/27 03:41:44;;;;;;;15.70;9.13;;;;;;;12.82;94.30;97042.44;5023485;28;20045;-68
2023/05/27 03:44:09;;;;;;;20.35;9.85;;;;;;;12.92;93.92;97040.97;5016201;28;20084;-69
2023/05/27 03:46:35;;;;;;;16.63;9.07;;;;;;;12.86;94.09;97049.94;5023042;28;20080;-70
2023/05/27 03:49:01;;;;;;;21.20;9.13;;;;;;;12.80;94.54;97050.25;5022781;28;20048;-70
2023/05/27 03:51:27;;;;;;;14.00;8.80;;;;;;;12.85;94.32;97053.84;5018783;28;20064;-70
2023/05/27 03:53:52;;;;;;;17.50;9.00;;;;;;;12.86;94.57;97049.94;5021930;28;20042;-69
2023/05/27 03:56:17;;;;;;;19.83;9.13;;;;;;;12.80;94.57;97053.00;5018027;28;20047;-69
2023/05/27 03:58:43;;;;;;;18.23;9.63;;;;;;;12.79;95.32;97047.88;5025197;28;20055;-69
2023/05/27 04:01:09;;;;;;;21.73;9.88;;;;;;;12.81;94.94;97057.31;5023188;28;20078;-69
2023/05/27 04:03:37;;;;;;;18.20;9.82;;;;;;;12.85;94.53;97045.59;5025146;28;20046;-69
2023/05/27 04:06:03;;;;;;;17.73;9.43;;;;;;;12.88;94.91;97056.63;5021663;28;20564;-69
2023/05/27 04:08:28;;;;;;;22.40;10.35;;;;;;;12.92;94.40;97045.69;5020905;28;20049;-70
2023/05/27 04:10:55;;;;;;;14.18;9.32;;;;;;;12.89;95.10;97051.91;5021717;28;20045;-70
2023/05/27 04:13:20;;;;;;;18.50;9.18;;;;;;;12.96;94.15;97046.50;5016768;28;20056;-70
2023/05/27 04:15:46;;;;;;;22.17;9.20;;;;;;;13.04;94.24;97055.66;5022743;28;20041;-70
2023/05/27 04:18:12;;;;;;;13.30;8.68;;;;;;;13.06;93.98;97054.13;5017555;28;20048;-70
2023/05/27 04:20:40;;;;;;;19.17;9.40;;;;;;;12.98;94.15;97050.50;5022447;28;20060;-70
2023/05/27 04:23:09;;;;;;;15.80;9.35;;;;;;;13.16;92.99;97058.16;5017015;28;20199;-70
2023/05/27 04:25:35;;;;;;;15.48;9.40;;;;;;;13.14;93.38;97060.47;5022190;28;20558;-70
2023/05/27 04:28:04;;;;;;;20.48;9.90;;;;;;;13.18;93.39;97053.06;5022147;28;20057;-71
2023/05/27 04:30:34;;;;;;;16.13;9.45;;;;;;;13.25;93.17;97047.63;5020673;28;20049;-70
2023/05/27 04:33:00;;;;;;;;;;;;;;;13.30;92.35;97046.53;5020939;28;20037;-70
2023/05/27 04:35:27;;;;;;;16.25;8.82;;;;;;;13.48;91.84;97058.53;5017926;28;19925;-71
2023/05/27 04:37:52;;;;;;;15.77;8.75;;;;;;;13.35;92.10;97048.97;5022473;28;20042;-71
2023/05/27 04:40:18;;;;;;;18.98;9.80;;;;;;;13.39;92.69;97050.56;5017406;28;20041;-70
2023/05/27 04:42:43;;;;;;;16.52;9.23;;;;;;;13.27;92.10;97041.78;5031718;28;20100;-70
2023/05/27 04:45:12;;;;;;;15.25;9.32;;;;;;;13.32;92.38;97045.00;5030508;28;20051;-70
2023/05/27 04:47:40;;;;;;;17.05;9.15;;;;;;;13.54;92.42;97051.53;5029517;28;20137;-69
2023/05/27 04:50:07;;;;;;;16.20;8.98;;;;;;;13.68;90.54;97048.13;5018246;28;20069;-70
2023/05/27 04:52:36;;;;;;;17.67;9.35;;;;;;;13.94;88.50;97049.16;5023502;28;20381;-70
2023/05/27 04:55:06;;;;;;;18.73;9.15;;;;;;;14.32;86.57;97052.59;5018552;28;20506;-70
2023/05/27 04:57:32;;;;;;;18.35;8.57;;;;;;;14.59;84.07;97046.91;5023289;28;20048;-70
2023/05/27 05:00:49;;;;;;;17.25;8.10;;;;;;;15.04;81.17;97056.59;5004601;28;20041;-69
2023/05/27 05:02:47;;;;;;;16.50;8.30;;;;;;;15.01;78.71;97048.31;5015349;28;20037;-69
2023/05/27 05:05:13;;;;;;;15.65;8.57;;;;;;;15.20;81.37;97055.50;5015868;28;20045;-70
2023/05/27 05:07:41;;;;;;;19.17;8.45;;;;;;;15.73;77.97;97060.34;5022380;28;20037;-69
2023/05/27 05:10:12;;;;;;;15.93;8.18;;;;;;;16.55;72.21;97061.59;5021378;28;20100;-70
2023/05/27 05:12:38;;;;;;;18.48;8.98;;;;;;;16.17;73.23;97056.50;5026642;28;20056;-70
2023/05/27 05:15:05;;;;;;;15.80;8.43;;;;;;;16.80;69.42;97056.81;5019708;28;20045;-69
2023/05/27 05:17:31;;;;;;;15.50;7.38;;;;;;;17.08;69.09;97070.97;5005108;28;20081;-72
2023/05/27 05:19:56;;;;;;;18.88;9.52;;;;;;;17.19;67.28;97061.44;5022725;28;20213;-69
2023/05/27 05:22:25;;;;;;;16.23;8.70;;;;;;;16.18;72.25;97065.56;5017717;28;21099;-69
2023/05/27 05:24:51;;;;;;;13.82;8.65;;;;;;;15.88;75.78;97063.16;5021009;28;20037;-71
2023/05/27 05:27:17;;;;;;;17.83;9.05;;;;;;;15.14;77.69;97062.53;5018666;28;20041;-71
2023/05/27 05:29:42;;;;;;;15.27;8.35;;;;;;;15.61;76.50;97067.06;5020831;28;20390;-69
2023/05/27 05:32:11;;;;;;;15.75;8.45;;;;;;;16.13;75.05;97060.41;5016554;28;20102;-69
2023/05/27 05:34:40;;;;;;;15.60;8.13;;;;;;;16.47;70.07;97068.31;5022855;28;20076;-69
2023/05/27 05:37:06;;;;;;;14.52;8.77;;;;;;;16.22;71.79;97069.91;5017732;28;20183;-69
2023/05/27 05:39:32;;;;;;;14.95;8.82;;;;;;;16.27;72.54;97062.41;5020210;28;20528;-69
2023/05/27 05:41:57;;;;;;;19.60;8.43;;;;;;;16.97;68.78;97068.25;5021753;28;20045;-70
2023/05/27 05:44:24;;;;;;;17.08;8.55;;;;;;;16.74;71.88;97071.44;5015186;28;20506;-70
2023/05/27 05:46:49;;;;;;;16.63;8.40;;;;;;;16.36;72.47;97068.31;5021668;28;20120;-70
2023/05/27 05:49:15;;;;;;;17.27;8.57;;;;;;;16.51;71.05;97066.31;5019139;28;20080;-70
2023/05/27 05:51:41;;;;;;;13.05;8.30;;;;;;;17.78;66.24;97060.72;5024568;28;20045;-70
2023/05/27 05:54:06;;;;;;;20.25;8.00;;;;;;;18.60;63.24;97064.09;5018155;28;20042;-71
2023/05/27 05:56:33;;;;;;;13.48;8.18;;;;;;;17.78;64.95;97066.28;5021001;28;20441;-74
2023/05/27 05:58:58;;;;;;;15.25;7.82;;;;;;;18.73;63.63;97065.13;5021443;28;20077;-71
2023/05/27 06:01:26;;;;;;;20.90;7.45;;;;;;;20.57;54.93;97063.47;5017768;28;20061;-70
2023/05/27 06:03:52;;;;;;;15.18;7.68;;;;;;;21.25;53.38;97061.44;5020042;28;20506;-71
2023/05/27 06:06:17;;;;;;;12.80;7.75;;;;;;;20.87;53.36;97064.56;5015357;28;20048;-71
2023/05/27 06:08:43;;;;;;;15.73;7.95;;;;;;;21.72;50.50;97071.66;5021036;28;20045;-70
2023/05/27 06:11:08;;;;;;;17.95;7.72;;;;;;;19.73;56.71;97070.75;5016089;28;20041;-71
2023/05/27 06:13:34;;;;;;;15.55;8.20;;;;;;;20.61;52.87;97069.00;5003223;28;20121;-70
2023/05/27 06:15:59;;;;;;;14.35;7.85;;;;;;;20.81;53.42;97077.38;5020944;28;20065;-70
2023/05/27 06:18:25;;;;;;;13.23;7.85;;;;;;;19.28;57.25;97074.50;5017885;28;20044;-71
2023/05/27 06:20:50;;;;;;;14.68;8.45;;;;;;;17.52;64.64;97069.59;5025150;28;20045;-71
2023/05/27 06:23:15;;;;;;;16.63;8.05;;;;;;;18.39;64.11;97070.63;5024639;28;20360;-70
2023/05/27 06:25:41;;;;;;;14.23;8.02;;;;;;;19.07;62.95;97066.41;5024491;28;20041;-71
2023/05/27 06:28:06;;;;;;;20.23;9.15;;;;;;;18.29;63.92;97068.72;5019763;28;20041;-71
2023/05/27 06:30:32;;;;;;;15.18;8.77;;;;;;;17.77;66.77;97066.69;5022937;28;20049;-71
2023/05/27 06:32:58;;;;;;;14.32;8.63;;;;;;;18.03;66.11;97065.34;5022186;28;20057;-71
2023/05/27 06:35:23;;;;;;;19.23;11.05;;;;;;;16.88;69.54;97074.19;5020764;28;20076;-71
2023/05/27 06:37:49;;;;;;;18.98;9.55;;;;;;;17.68;69.70;97069.09;5023286;28;20041;-72
2023/05/27 06:40:14;;;;;;;15.82;9.23;;;;;;;17.85;67.32;97073.78;5018089;28;20102;-70
2023/05/27 06:42:40;;;;;;;17.90;8.77;;;;;;;17.66;69.13;97068.72;5022920;28;20079;-71
2023/05/27 06:45:06;;;;;;;15.52;9.02;;;;;;;17.04;69.51;97070.97;5019737;28;20053;-72
2023/05/27 06:47:40;;;;;;;15.55;8.75;;;;;;;18.39;67.97;97067.06;5024635;28;20049;-70
2023/05/27 06:50:06;;;;;;;15.65;9.15;;;;;;;18.24;66.46;97060.81;5019372;28;20053;-69
2023/05/27 06:52:32;;;;;;;13.70;8.23;;;;;;;19.41;60.42;97062.81;5025466;28;20048;-69
2023/05/27 06:54:57;;;;;;;12.55;8.82;;;;;;;19.49;59.61;97058.75;5009968;28;20046;-71
2023/05/27 06:57:23;;;;;;;17.77;9.02;;;;;;;19.19;61.54;97056.75;5018834;28;20331;-73
2023/05/27 06:59:48;;;;;;;13.85;8.90;;;;;;;18.89;64.43;97061.84;5023837;28;20052;-71
2023/05/27 07:02:14;;;;;;;16.60;9.27;;;;;;;18.32;67.49;97054.03;5018788;28;20049;-71
2023/05/27 07:04:39;;;;;;;17.52;9.05;;;;;;;18.81;64.58;97042.88;5022960;28;20468;-71
2023/05/27 07:07:05;;;;;;;18.15;9.30;;;;;;;18.90;63.18;97049.53;5016575;28;20045;-72
2023/05/27 07:09:30;;;;;;;16.23;10.02;;;;;;;19.07;65.60;97061.63;5023859;28;20048;-71
2023/05/27 07:11:56;;;;;;;14.77;8.88;;;;;;;19.85;61.48;97059.06;5023158;28;20053;-71
2023/05/27 07:14:21;;;;;;;15.50;8.32;;;;;;;20.09;58.49;97059.09;5016947;28;20441;-71
2023/05/27 07:16:47;;;;;;;16.45;9.07;;;;;;;19.79;60.38;97060.75;5022243;28;20130;-70
2023/05/27 07:19:12;;;;;;;17.48;9.25;;;;;;;20.89;54.77;97070.50;5030769;23;20551;-68
2023/05/27 07:21:38;;;;;;;12.88;8.20;;;;;;;20.88;56.13;97062.56;5022321;28;20037;-71
2023/05/27 07:24:03;;;;;;;16.27;8.30;;;;;;;21.58;53.58;97065.16;5020295;28;20037;-71
2023/05/27 07:26:30;;;;;;;15.27;9.07;;;;;;;19.60;58.14;97055.81;5022014;28;20053;-71
2023/05/27 07:29:00;;;;;;;16.85;8.88;;;;;;;18.86;63.16;97057.09;5022964;28;20072;-71
2023/05/27 07:31:29;;;;;;;11.68;7.95;;;;;;;20.18;61.44;97059.34;5017964;28;20102;-69
2023/05/27 07:33:54;;;;;;;13.25;8.68;;;;;;;19.55;61.14;97042.41;5022687;28;20052;-70
2023/05/27 07:36:20;;;;;;;17.88;9.35;;;;;;;19.57;62.43;97051.91;5017330;28;20042;-69
2023/05/27 07:38:46;;;;;;;17.38;9.88;;;;;;;19.24;61.12;97051.50;5021811;28;20060;-70
2023/05/27 07:41:12;;;;;;;13.70;8.48;;;;;;;20.09;62.80;97056.31;5018004;28;20124;-70
2023/05/27 07:43:37;;;;;;;16.63;8.68;;;;;;;21.52;57.16;97050.16;5023412;28;20045;-68
2023/05/27 07:46:03;;;;;;;14.38;8.30;;;;;;;22.91;51.93;97042.44;5020498;28;20452;-69
2023/05/27 07:48:28;;;;;;;15.88;8.77;;;;;;;20.68;58.06;97043.06;5020321;28;20075;-68
2023/05/27 07:50:54;;;;;;;14.60;8.95;;;;;;;20.25;58.37;97039.75;5025033;28;20045;-68
2023/05/27 07:53:20;;;;;;;20.00;10.32;;;;;;;19.04;62.47;97031.16;5019074;28;20054;-68
2023/05/27 07:55:46;;;;;;;20.23;10.38;;;;;;;19.19;62.82;97035.31;5022003;28;20046;-70
2023/05/27 07:58:12;;;;;;;21.60;11.02;;;;;;;19.31;63.62;97030.44;5016561;28;20890;-69
2023/05/27 08:00:37;;;;;;;18.10;9.43;;;;;;;20.13;59.99;97031.22;5022790;28;20052;-70
2023/05/27 08:03:03;;;;;;;15.32;9.13;;;;;;;19.58;61.52;97027.69;5018301;28;20049;-70
2023/05/27 08:05:28;;;;;;;16.25;9.15;;;;;;;19.18;64.58;97027.41;5019079;28;20499;-69
2023/05/27 08:07:53;;;;;;;16.23;9.45;;;;;;;20.47;59.95;97033.84;5022642;28;20045;-69
2023/05/27 08:10:19;;;;;;;17.50;8.27;;;;;;;21.48;56.97;97024.38;5018543;28;20045;-68
2023/05/27 08:12:44;;;;;;;14.65;8.63;;;;;;;22.14;54.08;97018.88;5022607;28;20098;-69
2023/05/27 08:15:10;;;;;;;17.20;8.80;;;;;;;20.62;58.03;97023.28;5018180;28;20048;-70
2023/05/27 08:17:35;;;;;;;19.80;9.43;;;;;;;20.62;59.85;97012.16;5022190;28;20045;-70
2023/05/27 08:20:01;;;;;;;17.85;9.82;;;;;;;21.55;55.40;97018.66;5022645;28;20053;-70
2023/05/27 08:22:26;;;;;;;17.05;9.15;;;;;;;21.32;55.01;97013.13;5018458;28;20077;-70
2023/05/27 08:24:52;;;;;;;18.95;10.00;;;;;;;20.83;56.68;97004.59;5022522;28;20096;-68
2023/05/27 08:27:18;;;;;;;14.40;8.30;;;;;;;21.17;57.28;97010.66;5032408;28;20046;-69
2023/05/27 08:29:43;;;;;;;17.23;9.98;;;;;;;20.78;58.45;97008.69;5022593;28;20053;-70
2023/05/27 08:32:10;;;;;;;14.85;8.65;;;;;;;21.92;56.45;97001.88;5017603;28;20099;-69
2023/05/27 08:34:36;;;;;;;15.43;7.85;;;;;;;23.16;51.54;96998.31;5022413;28;20513;-69
2023/05/27 08:37:03;;;;;;;18.27;9.10;;;;;;;22.27;52.99;97000.25;5023063;28;20080;-69
2023/05/27 08:39:28;;;;;;;14.70;9.27;;;;;;;21.50;55.00;96998.84;5017677;28;20363;-69
2023/05/27 08:41:54;;;;;;;16.80;9.63;;;;;;;21.00;57.08;96989.53;5020882;28;20191;-69
2023/05/27 08:44:23;;;;;;;15.70;9.70;;;;;;;21.43;57.47;96985.03;5017679;28;20526;-69
2023/05/27 08:46:50;;;;;;;19.10;9.65;;;;;;;20.89;59.38;96986.97;5021478;28;20041;-68
2023/05/27 08:49:16;;;;;;;15.77;9.13;;;;;;;21.56;55.59;96978.41;5017380;28;20041;-68
2023/05/27 08:51:44;;;;;;;17.88;9.95;;;;;;;20.98;57.77;96995.53;5005287;28;20037;-68
2023/05/27 08:54:09;;;;;;;16.65;9.07;;;;;;;21.19;56.11;96983.19;5015716;28;20045;-69
2023/05/27 08:56:36;;;;;;;14.90;8.55;;;;;;;21.75;56.94;96976.78;5020934;28;20041;-68
2023/05/27 08:59:02;;;;;;;19.40;8.63;;;;;;;21.28;56.02;96970.66;5021811;28;20103;-69
2023/05/27 09:01:30;;;;;;;13.85;8.48;;;;;;;21.85;53.79;96979.75;5019395;28;20041;-68
2023/05/27 09:03:56;;;;;;;14.85;8.88;;;;;;;21.90;55.01;96979.22;5022254;28;20160;-69
2023/05/27 09:06:21;;;;;;;16.33;8.95;;;;;;;21.38;55.35;96967.63;5016690;28;20666;-69
2023/05/27 09:08:47;;;;;;;17.10;9.40;;;;;;;21.10;55.76;96966.25;5021326;28;20087;-67
2023/05/27 09:11:23;;;;;;;17.20;8.50;;;;;;;21.85;55.55;96969.38;5017759;28;20389;-68
2023/05/27 09:13:48;;;;;;;13.45;8.55;;;;;;;21.83;54.67;96965.47;5019998;28;20044;-68
2023/05/27 09:16:14;;;;;;;13.00;8.05;;;;;;;22.08;52.55;96954.47;5016658;28;20426;-68
2023/05/27 09:18:41;;;;;;;19.60;8.85;;;;;;;21.92;55.03;96968.41;5021321;28;20037;-68
2023/05/27 09:21:06;;;;;;;14.18;8.75;;;;;;;22.76;52.63;96962.28;5017346;28;20132;-69
2023/05/27 09:23:37;;;;;;;14.65;8.52;;;;;;;22.43;52.35;96971.53;5026060;28;20081;-69
2023/05/27 09:26:10;;;;;;;15.68;8.98;;;;;;;21.33;53.39;96953.44;5035144;28;20493;-70
2023/05/27 09:28:36;;;;;;;12.90;8.02;;;;;;;22.28;52.32;96948.78;5022202;28;20132;-69
2023/05/27 09:31:04;;;;;;;16.25;8.70;;;;;;;22.19;52.83;96954.19;5021937;28;20045;-70
2023/05/27 09:33:32;;;;;;;17.70;8.35;;;;;;;23.45;51.67;96937.50;5018733;28;20045;-69
2023/05/27 09:36:03;;;;;;;16.05;9.10;;;;;;;22.81;49.62;96940.19;5021799;28;20064;-69
2023/05/27 09:38:30;;;;;;;15.43;8.57;;;;;;;22.68;49.72;96944.94;5020481;28;20072;-69
2023/05/27 09:40:56;;;;;;;14.27;7.65;;;;;;;23.18;50.42;96948.34;5021160;28;20453;-69
2023/05/27 09:43:22;;;;;;;17.00;8.00;;;;;;;22.87;49.63;96938.41;5016631;28;20057;-69
2023/05/27 09:45:49;;;;;;;18.38;8.45;;;;;;;22.24;50.77;96936.16;5021933;28;20048;-68
2023/05/27 09:48:18;;;;;;;16.17;8.88;;;;;;;22.45;49.48;96934.81;5016144;28;20044;-69
2023/05/27 09:50:45;;;;;;;16.73;8.68;;;;;;;22.24;50.09;96927.78;5021654;28;20065;-69
2023/05/27 09:53:12;;;;;;;16.13;7.93;;;;;;;22.98;49.30;96935.31;5031479;28;20041;-69
2023/05/27 09:55:41;;;;;;;16.38;8.25;;;;;;;21.87;50.43;96955.78;5023156;28;20130;-70
2023/05/27 09:58:06;;;;;;;14.25;8.63;;;;;;;21.69;49.85;96938.69;5019762;28;20119;-69
2023/05/27 10:00:33;;;;;;;17.85;7.60;;;;;;;22.66;50.70;96930.66;5024243;28;20493;-70
2023/05/27 10:03:00;;;;;;;13.10;7.70;;;;;;;22.85;47.60;96926.91;5024035;28;20446;-69
2023/05/27 10:05:27;;;;;;;15.00;7.95;;;;;;;22.57;49.13;96924.94;5020312;28;20072;-68
2023/05/27 10:07:52;;;;;;;12.65;7.30;;;;;;;22.18;47.22;96915.56;5025195;28;20095;-68
2023/05/27 10:10:20;;;;;;;16.85;8.30;;;;;;;22.56;45.88;96923.34;5020125;28;20045;-68
2023/05/27 10:12:48;;;;;;;13.05;7.13;;;;;;;22.69;46.68;96921.41;5023529;28;20041;-67
2023/05/27 10:15:31;;;;;;;12.13;6.95;;;;;;;22.59;46.04;96922.47;5019999;28;20045;-68
2023/05/27 10:18:09;;;;;;;14.27;7.93;;;;;;;22.19;48.34;96923.50;5023535;28;20041;-66
2023/05/27 10:20:37;;;;;;;15.52;7.93;;;;;;;22.29;46.06;96919.69;5024476;28;20060;-69
2023/05/27 10:23:18;;;;;;;13.93;8.05;;;;;;;22.66;47.08;96916.69;5022560;28;20041;-70
2023/05/27 10:25:51;;;;;;;13.48;6.55;;;;;;;23.00;44.80;96921.69;5025340;28;20518;-68
2023/05/27 10:28:35;;;;;;;10.30;6.63;;;;;;;23.02;43.90;96904.50;5019218;28;20387;-67
2023/05/27 10:31:05;;;;;;;11.90;7.45;;;;;;;23.04;45.27;96914.00;5024064;28;20038;-67
2023/05/27 10:33:30;;;;;;;;;;;;;;;23.84;43.72;96917.94;5024003;28;20132;-67
2023/05/27 10:36:02;;;;;;;12.88;7.88;;;;;;;22.85;45.32;96914.94;5023832;28;20429;-68
2023/05/27 10:38:28;;;;;;;13.55;7.45;;;;;;;22.39;46.61;96909.44;5019391;28;20045;-68
2023/05/27 10:41:00;;;;;;;14.05;7.70;;;;;;;23.05;45.24;96912.03;5039387;28;20037;-67
2023/05/27 10:43:28;;;;;;;12.20;7.05;;;;;;;23.25;46.61;96907.00;5019937;28;20524;-69
2023/05/27 10:46:12;;;;;;;12.52;8.02;;;;;;;22.41;46.53;96897.84;5024241;28;20049;-67
2023/05/27 10:48:39;;;;;;;13.68;7.50;;;;;;;22.82;45.95;96910.25;5022862;28;20118;-68
2023/05/27 10:51:06;;;;;;;13.85;7.30;;;;;;;22.81;46.92;96901.09;5019429;28;20133;-70
2023/05/27 10:53:34;;;;;;;12.88;7.30;;;;;;;22.92;46.60;96906.34;5023030;28;20049;-67
2023/05/27 10:56:00;;;;;;;13.65;7.20;;;;;;;22.67;46.54;96907.06;5022879;28;20049;-66
2023/05/27 10:58:26;;;;;;;14.25;8.23;;;;;;;23.07;45.06;96904.75;5021329;28;20104;-66
2023/05/27 11:00:53;;;;;;;15.10;8.77;;;;;;;22.75;46.78;96904.88;5025921;28;20048;-67
2023/05/27 11:03:21;;;;;;;11.80;7.47;;;;;;;22.90;44.79;96909.63;5000873;28;20037;-68
2023/05/27 11:05:57;;;;;;;12.60;7.65;;;;;;;22.90;46.25;96906.03;5023770;28;20041;-67
2023/05/27 11:08:22;;;;;;;15.13;7.13;;;;;;;22.89;46.59;96898.88;5017876;28;20532;-68
2023/05/27 11:10:47;;;;;;;11.68;6.70;;;;;;;23.55;44.64;96906.88;5023757;28;20124;-68
2023/05/27 11:13:13;;;;;;;14.25;7.93;;;;;;;23.66;44.12;96896.16;5018041;28;20072;-68
2023/05/27 11:15:40;;;;;;;12.25;7.15;;;;;;;23.55;44.14;96885.31;5038473;28;20123;-67
2023/05/27 11:18:08;;;;;;;15.55;7.10;;;;;;;23.53;42.83;96890.53;5019026;28;20041;-67
2023/05/27 11:20:35;;;;;;;15.07;6.78;;;;;;;23.38;44.53;96892.25;5023656;28;20045;-68
2023/05/27 11:23:00;;;;;;;13.40;7.00;;;;;;;23.41;44.50;96880.19;5023065;28;20060;-67
2023/05/27 11:25:26;;;;;;;9.55;6.05;;;;;;;23.80;42.76;96878.91;5016891;28;20079;-68